sensor_id;sensor_type;location;lat;lon;timestamp;temperature;humidity
37378;DHT22;23248;48.120;14.854;2023-01-19T00:01:08;2.40;99.90
37378;DHT22;23248;48.120;14.854;2023-01-19T00:03:33;2.40;99.90
37378;DHT22;23248;48.120;14.854;2023-01-19T00:06:03;2.40;99.90
37378;DHT22;23248;48.120;14.854;2023-01-19T00:08:28;2.40;99.90
37378;DHT22;23248;48.120;14.854;2023-01-19T00:10:54;2.40;99.90
37378;DHT22;23248;48.120;14.854;2023-01-19T00:13:20;2.30;99.90
37378;DHT22;23248;48.120;14.854;2023-01-19T00:15:45;2.40;99.90
37378;DHT22;23248;48.120;14.854;2023-01-19T00:18:11;2.40;99.90
37378;DHT22;23248;48.120;14.854;2023-01-19T00:20:37;2.40;99.90
37378;DHT22;23248;48.120;14.854;2023-01-19T00:23:03;2.40;99.90
37378;DHT22;23248;48.120;14.854;2023-01-19T00:25:29;2.40;99.90
37378;DHT22;23248;48.120;14.854;2023-01-19T00:27:54;2.40;99.90
37378;DHT22;23248;48.120;14.854;2023-01-19T00:30:20;2.40;99.90
37378;DHT22;23248;48.120;14.854;2023-01-19T00:32:45;2.30;99.90
37378;DHT22;23248;48.120;14.854;2023-01-19T00:35:11;2.30;99.90
37378;DHT22;23248;48.120;14.854;2023-01-19T00:37:36;2.30;99.90
37378;DHT22;23248;48.120;14.854;2023-01-19T00:40:02;2.30;99.90
37378;DHT22;23248;48.120;14.854;2023-01-19T00:42:28;2.30;99.90
37378;DHT22;23248;48.120;14.854;2023-01-19T00:45:38;2.30;99.90
37378;DHT22;23248;48.120;14.854;2023-01-19T00:47:57;2.30;99.90
37378;DHT22;23248;48.120;14.854;2023-01-19T00:50:23;2.30;99.90
37378;DHT22;23248;48.120;14.854;2023-01-19T00:52:49;2.30;99.90
37378;DHT22;23248;48.120;14.854;2023-01-19T00:55:15;2.30;99.90
37378;DHT22;23248;48.120;14.854;2023-01-19T00:57:41;2.30;99.90
37378;DHT22;23248;48.120;14.854;2023-01-19T01:00:16;2.30;99.90
37378;DHT22;23248;48.120;14.854;2023-01-19T01:02:44;2.30;99.90
37378;DHT22;23248;48.120;14.854;2023-01-19T01:05:10;2.30;99.90
37378;DHT22;23248;48.120;14.854;2023-01-19T01:07:36;2.30;99.90
37378;DHT22;23248;48.120;14.854;2023-01-19T01:10:06;2.30;99.90
37378;DHT22;23248;48.120;14.854;2023-01-19T01:12:33;2.30;99.90
37378;DHT22;23248;48.120;14.854;2023-01-19T01:14:59;2.30;99.90
37378;DHT22;23248;48.120;14.854;2023-01-19T01:17:24;2.30;99.90
37378;DHT22;23248;48.120;14.854;2023-01-19T01:19:50;2.30;99.90
37378;DHT22;23248;48.120;14.854;2023-01-19T01:22:16;2.30;99.90
37378;DHT22;23248;48.120;14.854;2023-01-19T01:24:42;2.30;99.90
37378;DHT22;23248;48.120;14.854;2023-01-19T01:27:07;2.30;99.90
37378;DHT22;23248;48.120;14.854;2023-01-19T01:29:33;2.30;99.90
37378;DHT22;23248;48.120;14.854;2023-01-19T01:32:00;2.30;99.90
37378;DHT22;23248;48.120;14.854;2023-01-19T01:34:25;2.30;99.90
37378;DHT22;23248;48.120;14.854;2023-01-19T01:36:51;2.30;99.90
37378;DHT22;23248;48.120;14.854;2023-01-19T01:39:16;2.30;99.90
37378;DHT22;23248;48.120;14.854;2023-01-19T01:41:42;2.30;99.90
37378;DHT22;23248;48.120;14.854;2023-01-19T01:46:53;2.20;99.90
37378;DHT22;23248;48.120;14.854;2023-01-19T01:49:19;2.20;99.90
37378;DHT22;23248;48.120;14.854;2023-01-19T01:51:48;2.20;99.90
37378;DHT22;23248;48.120;14.854;2023-01-19T01:56:42;2.20;99.90
37378;DHT22;23248;48.120;14.854;2023-01-19T01:59:10;2.20;99.90
37378;DHT22;23248;48.120;14.854;2023-01-19T02:01:36;2.30;99.90
37378;DHT22;23248;48.120;14.854;2023-01-19T02:04:21;2.30;99.90
37378;DHT22;23248;48.120;14.854;2023-01-19T02:06:47;2.30;99.90
37378;DHT22;23248;48.120;14.854;2023-01-19T02:09:32;2.30;99.90
37378;DHT22;23248;48.120;14.854;2023-01-19T02:12:17;2.30;99.90
37378;DHT22;23248;48.120;14.854;2023-01-19T02:15:01;2.30;99.90
37378;DHT22;23248;48.120;14.854;2023-01-19T02:17:27;2.30;99.90
37378;DHT22;23248;48.120;14.854;2023-01-19T02:19:53;2.30;99.90
37378;DHT22;23248;48.120;14.854;2023-01-19T02:22:52;2.20;99.90
37378;DHT22;23248;48.120;14.854;2023-01-19T02:25:10;2.20;99.90
37378;DHT22;23248;48.120;14.854;2023-01-19T02:27:36;2.20;99.90
37378;DHT22;23248;48.120;14.854;2023-01-19T02:30:02;2.20;99.90
37378;DHT22;23248;48.120;14.854;2023-01-19T02:32:28;2.20;99.90
37378;DHT22;23248;48.120;14.854;2023-01-19T02:34:53;2.20;99.90
37378;DHT22;23248;48.120;14.854;2023-01-19T02:37:19;2.20;99.90
37378;DHT22;23248;48.120;14.854;2023-01-19T02:39:53;2.20;99.90
37378;DHT22;23248;48.120;14.854;2023-01-19T02:44:46;2.20;99.90
37378;DHT22;23248;48.120;14.854;2023-01-19T02:47:12;2.20;99.90
37378;DHT22;23248;48.120;14.854;2023-01-19T02:49:38;2.20;99.90
37378;DHT22;23248;48.120;14.854;2023-01-19T02:52:03;2.20;99.90
37378;DHT22;23248;48.120;14.854;2023-01-19T02:59:52;2.20;99.90
37378;DHT22;23248;48.120;14.854;2023-01-19T03:07:43;2.20;99.90
37378;DHT22;23248;48.120;14.854;2023-01-19T03:12:49;2.20;99.90
37378;DHT22;23248;48.120;14.854;2023-01-19T03:15:29;2.20;99.90
37378;DHT22;23248;48.120;14.854;2023-01-19T03:17:56;2.20;99.90
37378;DHT22;23248;48.120;14.854;2023-01-19T03:20:24;2.20;99.90
37378;DHT22;23248;48.120;14.854;2023-01-19T03:22:53;2.20;99.90
37378;DHT22;23248;48.120;14.854;2023-01-19T03:25:21;2.20;99.90
37378;DHT22;23248;48.120;14.854;2023-01-19T03:27:47;2.20;99.90
37378;DHT22;23248;48.120;14.854;2023-01-19T03:30:18;2.20;99.90
37378;DHT22;23248;48.120;14.854;2023-01-19T03:32:58;2.20;99.90
37378;DHT22;23248;48.120;14.854;2023-01-19T03:35:25;2.20;99.90
37378;DHT22;23248;48.120;14.854;2023-01-19T03:37:53;2.20;99.90
37378;DHT22;23248;48.120;14.854;2023-01-19T03:40:20;2.20;99.90
37378;DHT22;23248;48.120;14.854;2023-01-19T03:42:46;2.20;99.90
37378;DHT22;23248;48.120;14.854;2023-01-19T03:45:13;2.20;99.90
37378;DHT22;23248;48.120;14.854;2023-01-19T03:47:39;2.20;99.90
37378;DHT22;23248;48.120;14.854;2023-01-19T03:50:06;2.10;99.90
37378;DHT22;23248;48.120;14.854;2023-01-19T03:52:33;2.10;99.90
37378;DHT22;23248;48.120;14.854;2023-01-19T03:55:03;2.10;99.90
37378;DHT22;23248;48.120;14.854;2023-01-19T03:57:29;2.10;99.90
37378;DHT22;23248;48.120;14.854;2023-01-19T03:59:55;2.20;99.90
37378;DHT22;23248;48.120;14.854;2023-01-19T04:02:21;2.10;99.90
37378;DHT22;23248;48.120;14.854;2023-01-19T04:04:47;2.10;99.90
37378;DHT22;23248;48.120;14.854;2023-01-19T04:07:13;2.10;99.90
37378;DHT22;23248;48.120;14.854;2023-01-19T04:09:38;2.10;99.90
37378;DHT22;23248;48.120;14.854;2023-01-19T04:12:04;2.10;99.90
37378;DHT22;23248;48.120;14.854;2023-01-19T04:14:30;2.10;99.90
37378;DHT22;23248;48.120;14.854;2023-01-19T04:16:55;2.10;99.90
37378;DHT22;23248;48.120;14.854;2023-01-19T04:19:21;2.10;99.90
37378;DHT22;23248;48.120;14.854;2023-01-19T04:21:47;2.10;99.90
37378;DHT22;23248;48.120;14.854;2023-01-19T04:24:13;2.10;99.90
37378;DHT22;23248;48.120;14.854;2023-01-19T04:26:39;2.10;99.90
37378;DHT22;23248;48.120;14.854;2023-01-19T04:29:05;2.10;99.90
37378;DHT22;23248;48.120;14.854;2023-01-19T04:31:30;2.00;99.90
37378;DHT22;23248;48.120;14.854;2023-01-19T04:33:56;2.10;99.90
37378;DHT22;23248;48.120;14.854;2023-01-19T04:36:21;2.10;99.90
37378;DHT22;23248;48.120;14.854;2023-01-19T04:38:47;2.00;99.90
37378;DHT22;23248;48.120;14.854;2023-01-19T04:41:13;2.00;99.90
37378;DHT22;23248;48.120;14.854;2023-01-19T04:43:39;2.10;99.90
37378;DHT22;23248;48.120;14.854;2023-01-19T04:46:05;2.00;99.90
37378;DHT22;23248;48.120;14.854;2023-01-19T04:48:31;2.00;99.90
37378;DHT22;23248;48.120;14.854;2023-01-19T04:50:57;2.00;99.90
37378;DHT22;23248;48.120;14.854;2023-01-19T04:53:22;2.00;99.90
37378;DHT22;23248;48.120;14.854;2023-01-19T04:55:51;2.00;99.90
37378;DHT22;23248;48.120;14.854;2023-01-19T04:58:17;2.00;99.90
37378;DHT22;23248;48.120;14.854;2023-01-19T05:00:43;2.00;99.90
37378;DHT22;23248;48.120;14.854;2023-01-19T05:03:08;2.00;99.90
37378;DHT22;23248;48.120;14.854;2023-01-19T05:05:34;2.00;99.90
37378;DHT22;23248;48.120;14.854;2023-01-19T05:08:00;2.00;99.90
37378;DHT22;23248;48.120;14.854;2023-01-19T05:10:25;2.00;99.90
37378;DHT22;23248;48.120;14.854;2023-01-19T05:12:51;2.00;99.90
37378;DHT22;23248;48.120;14.854;2023-01-19T05:15:16;2.00;99.90
37378;DHT22;23248;48.120;14.854;2023-01-19T05:17:42;2.00;99.90
37378;DHT22;23248;48.120;14.854;2023-01-19T05:20:08;2.00;99.90
37378;DHT22;23248;48.120;14.854;2023-01-19T05:22:34;2.00;99.90
37378;DHT22;23248;48.120;14.854;2023-01-19T05:25:00;2.00;99.90
37378;DHT22;23248;48.120;14.854;2023-01-19T05:27:26;2.00;99.90
37378;DHT22;23248;48.120;14.854;2023-01-19T05:29:51;1.90;99.90
37378;DHT22;23248;48.120;14.854;2023-01-19T05:32:17;1.90;99.90
37378;DHT22;23248;48.120;14.854;2023-01-19T05:34:42;2.00;99.90
37378;DHT22;23248;48.120;14.854;2023-01-19T05:37:08;2.00;99.90
37378;DHT22;23248;48.120;14.854;2023-01-19T05:39:34;2.00;99.90
37378;DHT22;23248;48.120;14.854;2023-01-19T05:41:59;2.00;99.90
37378;DHT22;23248;48.120;14.854;2023-01-19T05:44:25;2.00;99.90
37378;DHT22;23248;48.120;14.854;2023-01-19T05:46:50;2.10;99.90
37378;DHT22;23248;48.120;14.854;2023-01-19T05:49:16;2.00;99.90
37378;DHT22;23248;48.120;14.854;2023-01-19T05:51:41;2.00;99.90
37378;DHT22;23248;48.120;14.854;2023-01-19T05:54:11;2.00;99.90
37378;DHT22;23248;48.120;14.854;2023-01-19T05:56:37;2.00;99.90
37378;DHT22;23248;48.120;14.854;2023-01-19T05:59:03;2.00;99.90
37378;DHT22;23248;48.120;14.854;2023-01-19T06:01:29;2.00;99.90
37378;DHT22;23248;48.120;14.854;2023-01-19T06:03:55;2.00;99.90
37378;DHT22;23248;48.120;14.854;2023-01-19T06:06:21;2.00;99.90
37378;DHT22;23248;48.120;14.854;2023-01-19T06:08:46;2.00;99.90
37378;DHT22;23248;48.120;14.854;2023-01-19T06:11:12;2.00;99.90
37378;DHT22;23248;48.120;14.854;2023-01-19T06:13:37;2.00;99.90
37378;DHT22;23248;48.120;14.854;2023-01-19T06:16:06;2.00;99.90
37378;DHT22;23248;48.120;14.854;2023-01-19T06:18:31;2.00;99.90
37378;DHT22;23248;48.120;14.854;2023-01-19T06:20:57;1.90;99.90
37378;DHT22;23248;48.120;14.854;2023-01-19T06:23:23;1.90;99.90
37378;DHT22;23248;48.120;14.854;2023-01-19T06:25:49;1.90;99.90
37378;DHT22;23248;48.120;14.854;2023-01-19T06:28:16;1.80;99.90
37378;DHT22;23248;48.120;14.854;2023-01-19T06:30:41;1.80;99.90
37378;DHT22;23248;48.120;14.854;2023-01-19T06:33:07;1.70;99.90
37378;DHT22;23248;48.120;14.854;2023-01-19T06:35:32;1.60;99.90
37378;DHT22;23248;48.120;14.854;2023-01-19T06:37:58;1.60;99.90
37378;DHT22;23248;48.120;14.854;2023-01-19T06:40:23;1.60;99.90
37378;DHT22;23248;48.120;14.854;2023-01-19T06:42:49;1.50;99.90
37378;DHT22;23248;48.120;14.854;2023-01-19T06:45:15;1.50;99.90
37378;DHT22;23248;48.120;14.854;2023-01-19T06:47:40;1.40;99.90
37378;DHT22;23248;48.120;14.854;2023-01-19T06:50:06;1.30;99.90
37378;DHT22;23248;48.120;14.854;2023-01-19T06:52:32;1.40;99.90
37378;DHT22;23248;48.120;14.854;2023-01-19T06:54:57;1.30;99.90
37378;DHT22;23248;48.120;14.854;2023-01-19T06:57:23;1.30;99.90
37378;DHT22;23248;48.120;14.854;2023-01-19T06:59:50;1.30;99.90
37378;DHT22;23248;48.120;14.854;2023-01-19T07:02:15;1.30;99.90
37378;DHT22;23248;48.120;14.854;2023-01-19T07:04:44;1.30;99.90
37378;DHT22;23248;48.120;14.854;2023-01-19T07:07:10;1.30;99.90
37378;DHT22;23248;48.120;14.854;2023-01-19T07:09:35;1.30;99.90
37378;DHT22;23248;48.120;14.854;2023-01-19T07:12:01;1.20;99.90
37378;DHT22;23248;48.120;14.854;2023-01-19T07:14:26;1.20;99.90
37378;DHT22;23248;48.120;14.854;2023-01-19T07:16:57;1.10;99.90
37378;DHT22;23248;48.120;14.854;2023-01-19T07:19:23;1.20;99.90
37378;DHT22;23248;48.120;14.854;2023-01-19T07:21:49;1.10;99.90
37378;DHT22;23248;48.120;14.854;2023-01-19T07:24:14;1.20;99.90
37378;DHT22;23248;48.120;14.854;2023-01-19T07:26:40;1.20;99.90
37378;DHT22;23248;48.120;14.854;2023-01-19T07:29:05;1.20;99.90
37378;DHT22;23248;48.120;14.854;2023-01-19T07:31:31;1.10;99.90
37378;DHT22;23248;48.120;14.854;2023-01-19T07:33:56;1.20;99.90
37378;DHT22;23248;48.120;14.854;2023-01-19T07:36:22;1.20;99.90
37378;DHT22;23248;48.120;14.854;2023-01-19T07:38:48;1.20;99.90
37378;DHT22;23248;48.120;14.854;2023-01-19T07:41:13;1.20;99.90
37378;DHT22;23248;48.120;14.854;2023-01-19T07:43:39;1.20;99.90
37378;DHT22;23248;48.120;14.854;2023-01-19T07:46:05;1.20;99.90
37378;DHT22;23248;48.120;14.854;2023-01-19T07:48:31;1.30;99.90
37378;DHT22;23248;48.120;14.854;2023-01-19T07:51:00;1.30;99.90
37378;DHT22;23248;48.120;14.854;2023-01-19T07:53:26;1.30;99.90
37378;DHT22;23248;48.120;14.854;2023-01-19T07:55:55;1.30;99.90
37378;DHT22;23248;48.120;14.854;2023-01-19T07:58:21;1.30;99.90
37378;DHT22;23248;48.120;14.854;2023-01-19T08:00:47;1.40;99.90
37378;DHT22;23248;48.120;14.854;2023-01-19T08:03:12;1.40;99.90
37378;DHT22;23248;48.120;14.854;2023-01-19T08:05:38;1.40;99.90
37378;DHT22;23248;48.120;14.854;2023-01-19T08:08:04;1.40;99.90
37378;DHT22;23248;48.120;14.854;2023-01-19T08:10:29;1.40;99.90
37378;DHT22;23248;48.120;14.854;2023-01-19T08:12:55;1.40;99.90
37378;DHT22;23248;48.120;14.854;2023-01-19T08:15:22;1.40;99.90
37378;DHT22;23248;48.120;14.854;2023-01-19T08:17:55;1.40;99.90
37378;DHT22;23248;48.120;14.854;2023-01-19T08:20:21;1.40;99.90
37378;DHT22;23248;48.120;14.854;2023-01-19T08:22:47;1.50;99.90
37378;DHT22;23248;48.120;14.854;2023-01-19T08:25:13;1.50;99.90
37378;DHT22;23248;48.120;14.854;2023-01-19T08:27:39;1.50;99.90
37378;DHT22;23248;48.120;14.854;2023-01-19T08:30:04;1.50;99.90
37378;DHT22;23248;48.120;14.854;2023-01-19T08:32:30;1.50;99.90
37378;DHT22;23248;48.120;14.854;2023-01-19T08:34:56;1.60;99.90
37378;DHT22;23248;48.120;14.854;2023-01-19T08:37:22;1.60;99.90
37378;DHT22;23248;48.120;14.854;2023-01-19T08:39:49;1.60;99.90
37378;DHT22;23248;48.120;14.854;2023-01-19T08:42:14;1.70;99.90
37378;DHT22;23248;48.120;14.854;2023-01-19T08:44:40;1.70;99.90
37378;DHT22;23248;48.120;14.854;2023-01-19T08:47:05;1.80;99.90
37378;DHT22;23248;48.120;14.854;2023-01-19T08:49:32;1.80;99.90
37378;DHT22;23248;48.120;14.854;2023-01-19T08:51:58;1.80;99.90
37378;DHT22;23248;48.120;14.854;2023-01-19T08:54:23;1.70;99.90
37378;DHT22;23248;48.120;14.854;2023-01-19T08:56:49;1.80;99.90
37378;DHT22;23248;48.120;14.854;2023-01-19T08:59:15;1.80;99.90
37378;DHT22;23248;48.120;14.854;2023-01-19T09:01:41;1.80;99.90
37378;DHT22;23248;48.120;14.854;2023-01-19T09:04:06;1.80;99.90
37378;DHT22;23248;48.120;14.854;2023-01-19T09:06:32;1.80;99.90
37378;DHT22;23248;48.120;14.854;2023-01-19T09:08:58;1.80;99.90
37378;DHT22;23248;48.120;14.854;2023-01-19T09:11:24;1.80;99.90
37378;DHT22;23248;48.120;14.854;2023-01-19T09:13:49;1.90;99.90
37378;DHT22;23248;48.120;14.854;2023-01-19T09:16:15;1.90;99.90
37378;DHT22;23248;48.120;14.854;2023-01-19T09:18:41;1.90;99.90
37378;DHT22;23248;48.120;14.854;2023-01-19T09:21:07;1.90;99.90
37378;DHT22;23248;48.120;14.854;2023-01-19T09:23:33;1.90;99.90
37378;DHT22;23248;48.120;14.854;2023-01-19T09:25:59;1.90;99.90
37378;DHT22;23248;48.120;14.854;2023-01-19T09:28:25;1.90;99.90
37378;DHT22;23248;48.120;14.854;2023-01-19T09:30:51;2.00;99.90
37378;DHT22;23248;48.120;14.854;2023-01-19T09:33:17;1.90;99.90
37378;DHT22;23248;48.120;14.854;2023-01-19T09:35:44;1.90;99.90
37378;DHT22;23248;48.120;14.854;2023-01-19T09:38:10;1.90;99.90
37378;DHT22;23248;48.120;14.854;2023-01-19T09:40:58;2.00;99.90
37378;DHT22;23248;48.120;14.854;2023-01-19T09:43:28;2.00;99.90
37378;DHT22;23248;48.120;14.854;2023-01-19T09:45:55;1.90;99.90
37378;DHT22;23248;48.120;14.854;2023-01-19T09:48:29;1.90;99.90
37378;DHT22;23248;48.120;14.854;2023-01-19T09:50:58;1.80;99.90
37378;DHT22;23248;48.120;14.854;2023-01-19T09:55:59;1.70;99.90
37378;DHT22;23248;48.120;14.854;2023-01-19T09:58:25;1.70;99.90
37378;DHT22;23248;48.120;14.854;2023-01-19T10:01:00;1.70;99.90
37378;DHT22;23248;48.120;14.854;2023-01-19T10:03:28;1.70;99.90
37378;DHT22;23248;48.120;14.854;2023-01-19T10:05:57;1.60;99.90
37378;DHT22;23248;48.120;14.854;2023-01-19T10:11:29;1.70;99.90
37378;DHT22;23248;48.120;14.854;2023-01-19T10:13:58;1.70;99.90
37378;DHT22;23248;48.120;14.854;2023-01-19T10:18:53;1.60;99.90
37378;DHT22;23248;48.120;14.854;2023-01-19T10:23:49;1.60;99.90
37378;DHT22;23248;48.120;14.854;2023-01-19T10:28:48;1.70;99.90
37378;DHT22;23248;48.120;14.854;2023-01-19T10:31:19;1.60;99.90
37378;DHT22;23248;48.120;14.854;2023-01-19T10:33:47;1.60;99.90
37378;DHT22;23248;48.120;14.854;2023-01-19T10:36:24;1.60;99.90
37378;DHT22;23248;48.120;14.854;2023-01-19T10:38:50;1.70;99.90
37378;DHT22;23248;48.120;14.854;2023-01-19T10:41:17;1.70;99.90
37378;DHT22;23248;48.120;14.854;2023-01-19T10:43:43;1.70;99.90
37378;DHT22;23248;48.120;14.854;2023-01-19T10:48:41;1.70;99.90
37378;DHT22;23248;48.120;14.854;2023-01-19T10:51:07;1.80;99.90
37378;DHT22;23248;48.120;14.854;2023-01-19T10:53:33;1.80;99.90
37378;DHT22;23248;48.120;14.854;2023-01-19T10:58:37;1.90;99.90
37378;DHT22;23248;48.120;14.854;2023-01-19T11:01:12;2.00;99.90
37378;DHT22;23248;48.120;14.854;2023-01-19T11:03:38;1.90;99.90
37378;DHT22;23248;48.120;14.854;2023-01-19T11:08:39;1.90;99.90
37378;DHT22;23248;48.120;14.854;2023-01-19T11:11:05;1.90;99.90
37378;DHT22;23248;48.120;14.854;2023-01-19T11:13:39;1.90;99.90
37378;DHT22;23248;48.120;14.854;2023-01-19T11:16:07;1.90;99.90
37378;DHT22;23248;48.120;14.854;2023-01-19T11:18:37;2.00;99.90
37378;DHT22;23248;48.120;14.854;2023-01-19T11:21:03;1.90;99.90
37378;DHT22;23248;48.120;14.854;2023-01-19T11:23:40;2.00;99.90
37378;DHT22;23248;48.120;14.854;2023-01-19T11:26:12;2.00;99.90
37378;DHT22;23248;48.120;14.854;2023-01-19T11:28:49;2.00;99.90
37378;DHT22;23248;48.120;14.854;2023-01-19T11:31:17;2.00;99.90
37378;DHT22;23248;48.120;14.854;2023-01-19T11:38:56;2.10;99.90
37378;DHT22;23248;48.120;14.854;2023-01-19T11:43:48;2.10;99.90
37378;DHT22;23248;48.120;14.854;2023-01-19T11:46:14;2.00;99.90
37378;DHT22;23248;48.120;14.854;2023-01-19T11:49:14;1.90;99.90
37378;DHT22;23248;48.120;14.854;2023-01-19T11:51:49;1.80;99.90
37378;DHT22;23248;48.120;14.854;2023-01-19T11:54:24;1.70;99.90
37378;DHT22;23248;48.120;14.854;2023-01-19T11:56:52;1.50;99.90
37378;DHT22;23248;48.120;14.854;2023-01-19T11:59:19;1.50;99.90
37378;DHT22;23248;48.120;14.854;2023-01-19T12:01:48;1.50;99.90
37378;DHT22;23248;48.120;14.854;2023-01-19T12:04:31;1.40;99.90
37378;DHT22;23248;48.120;14.854;2023-01-19T12:06:59;1.40;99.90
37378;DHT22;23248;48.120;14.854;2023-01-19T12:09:28;1.40;99.90
37378;DHT22;23248;48.120;14.854;2023-01-19T12:12:05;1.30;99.90
37378;DHT22;23248;48.120;14.854;2023-01-19T12:17:19;1.30;99.90
37378;DHT22;23248;48.120;14.854;2023-01-19T12:19:49;1.30;99.90
37378;DHT22;23248;48.120;14.854;2023-01-19T12:22:16;1.30;99.90
37378;DHT22;23248;48.120;14.854;2023-01-19T12:24:45;1.30;99.90
37378;DHT22;23248;48.120;14.854;2023-01-19T12:27:36;1.40;99.90
37378;DHT22;23248;48.120;14.854;2023-01-19T12:30:03;1.40;99.90
37378;DHT22;23248;48.120;14.854;2023-01-19T12:32:33;1.40;99.90
37378;DHT22;23248;48.120;14.854;2023-01-19T12:34:59;1.50;99.90
37378;DHT22;23248;48.120;14.854;2023-01-19T12:39:50;1.60;99.90
37378;DHT22;23248;48.120;14.854;2023-01-19T12:42:16;1.50;99.90
37378;DHT22;23248;48.120;14.854;2023-01-19T12:44:42;1.60;99.90
37378;DHT22;23248;48.120;14.854;2023-01-19T12:57:27;1.50;99.90
37378;DHT22;23248;48.120;14.854;2023-01-19T12:59:55;1.50;99.90
37378;DHT22;23248;48.120;14.854;2023-01-19T13:13:14;1.40;99.90
37378;DHT22;23248;48.120;14.854;2023-01-19T13:15:41;1.40;99.90
37378;DHT22;23248;48.120;14.854;2023-01-19T13:18:07;1.40;99.90
37378;DHT22;23248;48.120;14.854;2023-01-19T13:20:43;1.40;99.90
37378;DHT22;23248;48.120;14.854;2023-01-19T13:23:19;1.40;99.90
37378;DHT22;23248;48.120;14.854;2023-01-19T13:25:46;1.30;99.90
37378;DHT22;23248;48.120;14.854;2023-01-19T13:28:13;1.30;99.90
37378;DHT22;23248;48.120;14.854;2023-01-19T13:30:49;1.20;99.90
37378;DHT22;23248;48.120;14.854;2023-01-19T13:33:18;1.30;99.90
37378;DHT22;23248;48.120;14.854;2023-01-19T13:35:50;1.30;99.90
37378;DHT22;23248;48.120;14.854;2023-01-19T13:38:17;1.30;99.90
37378;DHT22;23248;48.120;14.854;2023-01-19T13:40:43;1.30;99.90
37378;DHT22;23248;48.120;14.854;2023-01-19T13:43:13;1.30;99.90
37378;DHT22;23248;48.120;14.854;2023-01-19T13:45:39;1.30;99.90
37378;DHT22;23248;48.120;14.854;2023-01-19T13:48:07;1.30;99.90
37378;DHT22;23248;48.120;14.854;2023-01-19T13:50:34;1.30;99.90
37378;DHT22;23248;48.120;14.854;2023-01-19T13:53:00;1.20;99.90
37378;DHT22;23248;48.120;14.854;2023-01-19T13:55:27;1.20;99.90
37378;DHT22;23248;48.120;14.854;2023-01-19T13:57:54;1.20;99.90
37378;DHT22;23248;48.120;14.854;2023-01-19T14:00:26;1.20;99.90
37378;DHT22;23248;48.120;14.854;2023-01-19T14:02:56;1.20;99.90
37378;DHT22;23248;48.120;14.854;2023-01-19T14:05:33;1.20;99.90
37378;DHT22;23248;48.120;14.854;2023-01-19T14:08:00;1.20;99.90
37378;DHT22;23248;48.120;14.854;2023-01-19T14:10:25;1.20;99.90
37378;DHT22;23248;48.120;14.854;2023-01-19T14:12:58;1.20;99.90
37378;DHT22;23248;48.120;14.854;2023-01-19T14:15:24;1.20;99.90
37378;DHT22;23248;48.120;14.854;2023-01-19T14:20:34;1.30;99.90
37378;DHT22;23248;48.120;14.854;2023-01-19T14:23:03;1.30;99.90
37378;DHT22;23248;48.120;14.854;2023-01-19T14:25:35;1.30;99.90
37378;DHT22;23248;48.120;14.854;2023-01-19T14:31:01;1.30;99.90
37378;DHT22;23248;48.120;14.854;2023-01-19T14:38:54;1.30;99.90
37378;DHT22;23248;48.120;14.854;2023-01-19T14:41:21;1.20;99.90
37378;DHT22;23248;48.120;14.854;2023-01-19T14:43:48;1.20;99.90
37378;DHT22;23248;48.120;14.854;2023-01-19T14:46:16;1.20;99.90
37378;DHT22;23248;48.120;14.854;2023-01-19T14:48:48;1.20;99.90
37378;DHT22;23248;48.120;14.854;2023-01-19T14:51:15;1.20;99.90
37378;DHT22;23248;48.120;14.854;2023-01-19T14:53:45;1.20;99.90
37378;DHT22;23248;48.120;14.854;2023-01-19T14:56:12;1.20;99.90
37378;DHT22;23248;48.120;14.854;2023-01-19T14:58:48;1.20;99.90
37378;DHT22;23248;48.120;14.854;2023-01-19T15:01:13;1.30;99.90
37378;DHT22;23248;48.120;14.854;2023-01-19T15:03:39;1.30;99.90
37378;DHT22;23248;48.120;14.854;2023-01-19T15:06:04;1.30;99.90
37378;DHT22;23248;48.120;14.854;2023-01-19T15:08:31;1.20;99.90
37378;DHT22;23248;48.120;14.854;2023-01-19T15:11:05;1.20;99.90
37378;DHT22;23248;48.120;14.854;2023-01-19T15:13:33;1.20;99.90
37378;DHT22;23248;48.120;14.854;2023-01-19T15:15:59;1.30;99.90
37378;DHT22;23248;48.120;14.854;2023-01-19T15:18:25;1.30;99.90
37378;DHT22;23248;48.120;14.854;2023-01-19T15:20:51;1.20;99.90
37378;DHT22;23248;48.120;14.854;2023-01-19T15:23:17;1.20;99.90
37378;DHT22;23248;48.120;14.854;2023-01-19T15:25:42;1.20;99.90
37378;DHT22;23248;48.120;14.854;2023-01-19T15:28:12;1.10;99.90
37378;DHT22;23248;48.120;14.854;2023-01-19T15:30:38;1.10;99.90
37378;DHT22;23248;48.120;14.854;2023-01-19T15:33:04;1.10;99.90
37378;DHT22;23248;48.120;14.854;2023-01-19T15:35:29;1.10;99.90
37378;DHT22;23248;48.120;14.854;2023-01-19T15:37:55;1.10;99.90
37378;DHT22;23248;48.120;14.854;2023-01-19T15:40:21;1.10;99.90
37378;DHT22;23248;48.120;14.854;2023-01-19T15:42:47;1.00;99.90
37378;DHT22;23248;48.120;14.854;2023-01-19T15:47:42;1.00;99.90
37378;DHT22;23248;48.120;14.854;2023-01-19T15:50:07;1.00;99.90
37378;DHT22;23248;48.120;14.854;2023-01-19T15:52:33;1.00;99.90
37378;DHT22;23248;48.120;14.854;2023-01-19T15:54:59;1.10;99.90
37378;DHT22;23248;48.120;14.854;2023-01-19T15:57:24;1.10;99.90
37378;DHT22;23248;48.120;14.854;2023-01-19T15:59:50;1.00;99.90
37378;DHT22;23248;48.120;14.854;2023-01-19T16:02:15;1.00;99.90
37378;DHT22;23248;48.120;14.854;2023-01-19T16:04:41;1.10;99.90
37378;DHT22;23248;48.120;14.854;2023-01-19T16:07:07;1.00;99.90
37378;DHT22;23248;48.120;14.854;2023-01-19T16:09:32;1.10;99.90
37378;DHT22;23248;48.120;14.854;2023-01-19T16:11:58;1.00;99.90
37378;DHT22;23248;48.120;14.854;2023-01-19T16:14:24;1.00;99.90
37378;DHT22;23248;48.120;14.854;2023-01-19T16:17:05;1.00;99.90
37378;DHT22;23248;48.120;14.854;2023-01-19T16:19:31;1.00;99.90
37378;DHT22;23248;48.120;14.854;2023-01-19T16:21:56;1.00;99.90
37378;DHT22;23248;48.120;14.854;2023-01-19T16:24:22;1.00;99.90
37378;DHT22;23248;48.120;14.854;2023-01-19T16:26:47;1.00;99.90
37378;DHT22;23248;48.120;14.854;2023-01-19T16:29:13;1.00;99.90
37378;DHT22;23248;48.120;14.854;2023-01-19T16:31:39;1.00;99.90
37378;DHT22;23248;48.120;14.854;2023-01-19T16:34:05;1.00;99.90
37378;DHT22;23248;48.120;14.854;2023-01-19T16:36:32;1.00;99.90
37378;DHT22;23248;48.120;14.854;2023-01-19T16:38:59;1.00;99.90
37378;DHT22;23248;48.120;14.854;2023-01-19T16:41:25;0.90;99.90
37378;DHT22;23248;48.120;14.854;2023-01-19T16:43:51;1.00;99.90
37378;DHT22;23248;48.120;14.854;2023-01-19T16:46:18;1.00;99.90
37378;DHT22;23248;48.120;14.854;2023-01-19T16:48:44;0.90;99.90
37378;DHT22;23248;48.120;14.854;2023-01-19T16:51:10;0.90;99.90
37378;DHT22;23248;48.120;14.854;2023-01-19T16:53:35;1.00;99.90
37378;DHT22;23248;48.120;14.854;2023-01-19T16:56:05;1.00;99.90
37378;DHT22;23248;48.120;14.854;2023-01-19T16:58:31;1.00;99.90
37378;DHT22;23248;48.120;14.854;2023-01-19T17:00:58;1.00;99.90